GCUTK EGHP-EGHP

Flight info

Callsign GCUTK
Flight time 0h 1m
Altitude 1500
Route LOCAL VFR
Aircraft J3/L-VGD/A

Departure

Time 2026-04-19 13:09
Airport Popham Airfield (EGHP)

Arrival

Time 2026-04-19 13:10
Airport Popham Airfield (EGHP)
Time Latitude Longitude Altitude Speed Heading
2026-04-19 12:56 51.19408 -1.23466 529 ft 0 kts 176°
2026-04-19 13:04 51.19407 -1.23466 529 ft 4 kts 176°
2026-04-19 13:04 51.19387 -1.23442 530 ft 4 kts 46°
2026-04-19 13:04 51.19413 -1.23405 531 ft 7 kts 58°
2026-04-19 13:04 51.19426 -1.23357 533 ft 0 kts 74°
2026-04-19 13:05 51.19429 -1.23340 532 ft 8 kts 73°
2026-04-19 13:05 51.19449 -1.23295 532 ft 4 kts 37°
2026-04-19 13:06 51.19475 -1.23266 531 ft 5 kts 32°
2026-04-19 13:06 51.19477 -1.23264 531 ft 0 kts 10°
2026-04-19 13:06 51.19478 -1.23264 530 ft 0 kts
2026-04-19 13:06 51.19558 -1.23190 522 ft 35 kts 33°
2026-04-19 13:07 51.19848 -1.22891 549 ft 54 kts 27°
2026-04-19 13:07 51.20127 -1.22630 700 ft 46 kts 28°
2026-04-19 13:07 51.20348 -1.22258 786 ft 48 kts 49°
2026-04-19 13:07 51.20580 -1.22002 850 ft 42 kts
2026-04-19 13:08 51.20818 -1.22288 905 ft 47 kts 309°
2026-04-19 13:08 51.20858 -1.22806 964 ft 59 kts 256°
2026-04-19 13:08 51.20536 -1.23243 1025 ft 60 kts 211°
2026-04-19 13:08 51.20244 -1.23694 1081 ft 59 kts 236°
2026-04-19 13:09 51.19918 -1.24134 1141 ft 62 kts 218°
2026-04-19 13:09 51.19548 -1.24485 1173 ft 64 kts 214°
2026-04-19 13:09 51.19134 -1.24789 1214 ft 67 kts 205°
2026-04-19 13:09 51.18705 -1.25042 1300 ft 63 kts 200°
2026-04-19 13:10 51.18265 -1.25063 1398 ft 62 kts 144°
2026-04-19 13:10 51.17995 -1.24557 1490 ft 57 kts 91°
2026-04-19 13:10 51.18110 -1.24074 1535 ft 44 kts 42°
2026-04-19 13:10 51.18330 -1.23712 1506 ft 44 kts 35°
2026-04-19 13:11 51.18555 -1.23399 1487 ft 42 kts 30°
2026-04-19 13:11 51.18791 -1.23099 1457 ft 46 kts 28°
2026-04-19 13:11 51.18963 -1.22901 1442 ft 48 kts 26°
2026-04-19 13:11 51.19232 -1.22623 1554 ft 42 kts 14°